Irving South's Hourly Summary for Sunday, April 16, 2017
Hour Temp
(f)
RH
(%)
Solar Rad.
(MJ/m2)
Rainfall
(in)
Wind
(mph)
4/16/2017 12:00 AM 70 64 0 0 0.7
4/16/2017 1:00 AM 70 65 0 0 1.99
4/16/2017 2:00 AM 70 64 0 0 3.54
4/16/2017 3:00 AM 70 65 0 0 3.89
4/16/2017 4:00 AM 68 69 0 0 3.27
4/16/2017 5:00 AM 67 73 0 0 2.65
4/16/2017 6:00 AM 66 78 0 0 1.18
4/16/2017 7:00 AM 66 81 0 0 0.66
4/16/2017 8:00 AM 66 80 0.07 0 2.14
4/16/2017 9:00 AM 68 75 0.27 0 2.39
4/16/2017 10:00 AM 70 67 0.61 0 4.47
4/16/2017 11:00 AM 72 64 0.89 0 4.18
4/16/2017 12:00 PM 74 58 1.49 0 4.44
4/16/2017 1:00 PM 76 54 1.41 0 4.06
4/16/2017 2:00 PM 76 55 0.9 0 2.84
4/16/2017 3:00 PM 75 59 0.86 0 1.97
4/16/2017 4:00 PM 76 59 1.02 0 3.4
4/16/2017 5:00 PM 78 53 1.92 0 4.12
4/16/2017 6:00 PM 79 49 0.69 0 3.14
4/16/2017 7:00 PM 77 53 0.28 0 1.6
4/16/2017 8:00 PM 75 59 0.04 0 0.04
4/16/2017 9:00 PM 75 61 0 0 0.31
4/16/2017 10:00 PM 73 63 0 0 0
4/16/2017 11:00 PM 71 70 0 0 0
Data Summary 72 64 10.45 0.00 2.37